createdAt,value
2022-08-05T00:01:35.522Z,-11337.78
2022-08-05T00:04:42.602Z,-11334.38
2022-08-05T00:08:00.621Z,-11334.09
2022-08-05T00:11:20.616Z,-11348.19
2022-08-05T00:14:34.480Z,-11364.69
2022-08-05T00:17:40.972Z,-11365.38
2022-08-05T00:20:48.157Z,-11349.31
2022-08-05T00:24:10.589Z,-11351.84
2022-08-05T00:27:19.219Z,-11352.13
2022-08-05T00:30:29.203Z,-11341.44
2022-08-05T00:34:54.080Z,-11328.63
2022-08-05T00:37:11.307Z,-11317.34
2022-08-05T00:40:27.439Z,-11308.19
2022-08-05T00:43:47.034Z,-11318.19
2022-08-05T00:47:02.129Z,-11320.31
2022-08-05T00:50:11.347Z,-11335.50
2022-08-05T00:54:00.921Z,-11329.59
2022-08-05T00:56:51.819Z,-11324.25
2022-08-05T01:00:00.420Z,-11326.22
2022-08-05T01:03:07.827Z,-11305.66
2022-08-05T01:06:15.432Z,-11306.50
2022-08-05T01:09:21.923Z,-11304.97
2022-08-05T01:12:29.695Z,-11309.19
2022-08-05T01:15:48.241Z,-11309.75
2022-08-05T01:19:07.317Z,-11311.00
2022-08-05T01:22:34.112Z,-11311.00
2022-08-05T01:25:56.354Z,-11301.16
2022-08-05T01:29:07.331Z,-11298.06
2022-08-05T01:32:19.975Z,-11299.19
2022-08-05T01:35:52.107Z,-11294.13
2022-08-05T01:39:01.019Z,-11306.66
2022-08-05T01:42:10.534Z,-11320.72
2022-08-05T01:45:22.267Z,-11317.22
2022-08-05T01:48:31.549Z,-11323.69
2022-08-05T01:51:39.682Z,-11300.75
2022-08-05T01:54:52.824Z,-11301.16
2022-08-05T01:58:10.214Z,-11304.41
2022-08-05T02:01:25.271Z,-11316.78
2022-08-05T02:04:35.643Z,-11322.28
2022-08-05T02:07:57.897Z,-11331.16
2022-08-05T02:11:11.813Z,-11336.22
2022-08-05T02:14:23.295Z,-11334.09
2022-08-05T02:18:28.535Z,-11336.38
2022-08-05T02:21:14.712Z,-11328.19
2022-08-05T02:24:24.388Z,-11329.31
2022-08-05T02:27:58.900Z,-11328.75
2022-08-05T02:31:04.058Z,-11331.56
2022-08-05T02:34:13.053Z,-11329.19
2022-08-05T02:37:21.498Z,-11322.13
2022-08-05T02:40:28.378Z,-11300.88
2022-08-05T02:43:35.577Z,-11296.09
2022-08-05T02:47:03.172Z,-11304.25
2022-08-05T02:50:14.678Z,-11292.28
2022-08-05T02:53:25.073Z,-11280.88
2022-08-05T02:56:36.431Z,-11269.91
2022-08-05T02:59:50.487Z,-11271.31
2022-08-05T03:02:59.374Z,-11267.53
2022-08-05T03:06:55.504Z,-11283.28
2022-08-05T03:09:37.609Z,-11278.22
2022-08-05T03:12:44.968Z,-11268.09
2022-08-05T03:15:58.391Z,-11264.00
2022-08-05T03:19:17.458Z,-11277.78
2022-08-05T03:22:32.837Z,-11282.44
2022-08-05T03:26:04.818Z,-11295.53
2022-08-05T03:29:07.710Z,-11282.44
2022-08-05T03:32:20.695Z,-11290.75
2022-08-05T03:35:40.738Z,-11282.56
2022-08-05T03:38:53.297Z,-11283.13
2022-08-05T03:41:59.618Z,-11277.50
2022-08-05T03:45:22.086Z,-11265.13
2022-08-05T03:48:29.681Z,-11260.63
2022-08-05T03:52:37.710Z,-11259.63
2022-08-05T03:56:05.518Z,-11268.22
2022-08-05T03:58:41.133Z,-11268.38
2022-08-05T04:01:50.574Z,-11289.63
2022-08-05T04:04:58.747Z,-11298.34
2022-08-05T04:08:30.372Z,-11307.06
2022-08-05T04:11:47.129Z,-11313.56
2022-08-05T04:14:54.890Z,-11319.19
2022-08-05T04:18:06.772Z,-11309.19
2022-08-05T04:21:14.312Z,-11309.03
2022-08-05T04:24:43.992Z,-11307.34
2022-08-05T04:27:58.088Z,-11308.75
2022-08-05T04:31:08.255Z,-11320.44
2022-08-05T04:34:31.729Z,-11329.03
2022-08-05T04:38:02.995Z,-11340.72
2022-08-05T04:41:05.896Z,-11329.75
2022-08-05T04:44:16.233Z,-11329.59
2022-08-05T04:47:30.851Z,-11338.47
2022-08-05T04:51:02.654Z,-11348.63
2022-08-05T04:54:16.608Z,-11340.44
2022-08-05T04:57:24.035Z,-11354.66
2022-08-05T05:00:38.905Z,-11366.66
2022-08-05T05:03:45.693Z,-11380.19
2022-08-05T05:06:52.067Z,-11371.28
2022-08-05T05:10:06.543Z,-11389.47
2022-08-05T05:13:14.935Z,-11391.03
2022-08-05T05:16:22.551Z,-11379.31
2022-08-05T05:19:44.335Z,-11396.09
2022-08-05T05:22:53.886Z,-11405.69
2022-08-05T05:26:00.065Z,-11414.13
2022-08-05T05:29:14.393Z,-11420.19
2022-08-05T05:32:22.871Z,-11421.31
2022-08-05T05:35:34.244Z,-11428.81
2022-08-05T05:38:44.708Z,-11444.88
2022-08-05T05:41:54.500Z,-11457.41
2022-08-05T05:45:01.272Z,-11430.78
2022-08-05T05:48:10.894Z,-11453.34
2022-08-05T05:51:23.043Z,-11450.50
2022-08-05T05:54:49.908Z,-11441.63
2022-08-05T05:57:55.599Z,-11461.78
2022-08-05T06:01:12.790Z,-11471.66
2022-08-05T06:04:22.066Z,-11485.91
2022-08-05T06:07:42.127Z,-11474.19
2022-08-05T06:10:52.512Z,-11482.94
2022-08-05T06:14:00.276Z,-11500.16
2022-08-05T06:17:24.209Z,-11503.69
2022-08-05T06:20:32.456Z,-11502.97
2022-08-05T06:23:43.850Z,-11511.44
2022-08-05T06:26:52.274Z,-11512.56
2022-08-05T06:30:04.259Z,-11516.94
2022-08-05T06:33:12.390Z,-11531.03
2022-08-05T06:36:26.746Z,-11521.72
2022-08-05T06:39:43.860Z,-11537.53
2022-08-05T06:42:52.615Z,-11534.28
2022-08-05T06:46:03.603Z,-11536.84
2022-08-05T06:49:10.649Z,-11543.03
2022-08-05T06:52:36.989Z,-11546.16
2022-08-05T06:55:44.446Z,-11554.47
2022-08-05T06:58:51.974Z,-11559.97
2022-08-05T07:01:58.313Z,-11572.13
2022-08-05T07:05:05.014Z,-11584.53
2022-08-05T07:08:23.580Z,-11582.84
2022-08-05T07:11:32.273Z,-11586.78
2022-08-05T07:15:01.117Z,-11604.72
2022-08-05T07:18:09.829Z,-11609.66
2022-08-05T07:21:17.800Z,-11593.00
2022-08-05T07:24:35.108Z,-11608.66
2022-08-05T07:27:57.741Z,-11630.97
2022-08-05T07:31:10.109Z,-11612.47
2022-08-05T07:34:21.168Z,-11624.06
2022-08-05T07:37:37.521Z,-11628.28
2022-08-05T07:40:47.565Z,-11638.75
2022-08-05T07:44:02.636Z,-11635.91
2022-08-05T07:47:10.403Z,-11649.34
2022-08-05T07:50:24.964Z,-11649.75
2022-08-05T07:53:50.477Z,-11664.72
2022-08-05T07:57:02.367Z,-11672.50
2022-08-05T08:00:24.602Z,-11667.41
2022-08-05T08:03:44.345Z,-11657.38
2022-08-05T08:06:51.336Z,-11663.59
2022-08-05T08:09:57.551Z,-11696.50
2022-08-05T08:13:05.604Z,-11679.56
2022-08-05T08:16:35.842Z,-11695.66
2022-08-05T08:20:43.664Z,-11706.53
2022-08-05T08:23:04.736Z,-11699.34
2022-08-05T08:26:10.923Z,-11712.03
2022-08-05T08:29:29.622Z,-11723.47
2022-08-05T08:32:46.069Z,-11715.16
2022-08-05T08:36:07.820Z,-11723.06
2022-08-05T08:39:20.052Z,-11732.53
2022-08-05T08:42:34.478Z,-11752.31
2022-08-05T08:45:56.565Z,-11755.28
2022-08-05T08:50:22.276Z,-11754.41
2022-08-05T08:52:33.543Z,-11754.84
2022-08-05T08:56:04.478Z,-11752.44
2022-08-05T08:59:19.368Z,-11752.72
2022-08-05T09:02:29.447Z,-11743.81
2022-08-05T09:05:38.664Z,-11749.75
2022-08-05T09:09:03.427Z,-11765.16
2022-08-05T09:12:20.486Z,-11781.13
2022-08-05T09:15:37.073Z,-11775.91
2022-08-05T09:18:45.678Z,-11786.22
2022-08-05T09:22:21.889Z,-11777.16
2022-08-05T09:25:23.981Z,-11790.16
2022-08-05T09:28:31.959Z,-11787.47
2022-08-05T09:32:41.097Z,-11804.31
2022-08-05T09:35:26.649Z,-11792.16
2022-08-05T09:38:33.986Z,-11808.41
2022-08-05T09:42:00.790Z,-11818.72
2022-08-05T09:46:04.707Z,-11799.22
2022-08-05T09:48:38.464Z,-11784.81
2022-08-05T09:51:49.694Z,-11783.09
2022-08-05T09:54:59.905Z,-11795.69
2022-08-05T09:58:14.131Z,-11802.31
2022-08-05T10:01:31.945Z,-11804.16
2022-08-05T10:04:41.176Z,-11805.72
2022-08-05T10:08:36.136Z,-11809.66
2022-08-05T10:11:18.740Z,-11824.09
2022-08-05T10:14:27.180Z,-11792.44
2022-08-05T10:17:37.177Z,-11812.78
2022-08-05T10:20:48.624Z,-11841.31
2022-08-05T10:24:00.366Z,-11839.91
2022-08-05T10:27:08.005Z,-11794.84
2022-08-05T10:31:19.958Z,-11801.75
2022-08-05T10:33:42.533Z,-11814.63
2022-08-05T10:36:49.319Z,-11777.88
2022-08-05T10:40:17.387Z,-11789.31
2022-08-05T10:43:35.846Z,-11782.25
2022-08-05T10:46:51.144Z,-11759.09
2022-08-05T10:50:32.695Z,-11754.41
2022-08-05T10:53:42.573Z,-11750.34
2022-08-05T10:56:56.141Z,-11747.50
2022-08-05T11:00:19.775Z,-11783.41
2022-08-05T11:03:27.497Z,-11769.81
2022-08-05T11:06:35.526Z,-11797.53
2022-08-05T11:09:47.055Z,-11823.53
2022-08-05T11:12:55.991Z,-11833.41
2022-08-05T11:16:47.779Z,-11816.03
2022-08-05T11:20:10.311Z,-11801.34
2022-08-05T11:24:03.129Z,-11798.38
2022-08-05T11:27:37.035Z,-11787.06
2022-08-05T11:31:57.290Z,-11760.78
2022-08-05T11:35:00.594Z,-11787.19
2022-08-05T11:38:26.587Z,-11773.91
2022-08-05T11:42:01.508Z,-11772.78
2022-08-05T11:45:05.375Z,-11776.88
2022-08-05T11:48:13.369Z,-11753.16
2022-08-05T11:51:44.775Z,-11755.13
2022-08-05T11:54:54.962Z,-11749.75
2022-08-05T11:58:09.298Z,-11767.84
2022-08-05T12:01:19.919Z,-11794.28
2022-08-05T12:04:29.392Z,-11804.31
2022-08-05T12:08:03.757Z,-11815.03
2022-08-05T12:11:06.654Z,-11828.47
2022-08-05T12:14:12.896Z,-11857.44
2022-08-05T12:18:04.292Z,-11828.31
2022-08-05T12:20:48.498Z,-11798.94
2022-08-05T12:24:04.537Z,-11813.34
2022-08-05T12:27:21.528Z,-11812.50
2022-08-05T12:30:39.336Z,-11831.16
2022-08-05T12:33:53.186Z,-11829.19
2022-08-05T12:37:10.676Z,-11828.47
2022-08-05T12:40:26.914Z,-11847.56
2022-08-05T12:43:35.020Z,-11864.50
2022-08-05T12:46:54.250Z,-11834.69
2022-08-05T12:50:06.419Z,-11838.22
2022-08-05T12:53:18.704Z,-11851.22
2022-08-05T12:56:34.862Z,-11857.16
2022-08-05T13:01:58.386Z,-11853.34
2022-08-05T13:03:15.936Z,-11846.69
2022-08-05T13:06:22.964Z,-11809.38
2022-08-05T13:09:31.875Z,-11804.59
2022-08-05T13:12:42.703Z,-11807.56
2022-08-05T13:15:57.552Z,-11782.25
2022-08-05T13:19:04.806Z,-11797.09
2022-08-05T13:22:12.087Z,-11844.28
2022-08-05T13:25:22.021Z,-11856.44
2022-08-05T13:28:48.324Z,-11847.69
2022-08-05T13:32:04.758Z,-11817.59
2022-08-05T13:35:11.627Z,-11805.84
2022-08-05T13:38:28.489Z,-11794.13
2022-08-05T13:41:42.380Z,-11786.50
2022-08-05T13:44:51.760Z,-11787.63
2022-08-05T13:48:09.128Z,-11773.50
2022-08-05T13:51:36.525Z,-11789.47
2022-08-05T13:54:53.397Z,-11791.88
2022-08-05T13:58:01.221Z,-11786.22
2022-08-05T14:01:07.768Z,-11801.19
2022-08-05T14:04:31.498Z,-11818.72
2022-08-05T14:08:00.832Z,-11829.47
2022-08-05T14:11:20.581Z,-11814.06
2022-08-05T14:14:33.528Z,-11794.28
2022-08-05T14:17:40.396Z,-11784.38
2022-08-05T14:20:48.936Z,-11788.91
2022-08-05T14:24:00.635Z,-11806.97
2022-08-05T14:27:18.165Z,-11834.81
2022-08-05T14:30:27.907Z,-11838.34
2022-08-05T14:33:59.983Z,-11848.81
2022-08-05T14:37:01.195Z,-11847.25
2022-08-05T14:40:08.819Z,-11836.25
2022-08-05T14:43:15.318Z,-11859.97
2022-08-05T14:46:28.874Z,-11827.63
2022-08-05T14:49:59.232Z,-11818.44
2022-08-05T14:53:02.331Z,-11811.78
2022-08-05T14:56:09.364Z,-11795.81
2022-08-05T14:59:18.476Z,-11790.44
2022-08-05T15:02:29.161Z,-11802.59
2022-08-05T15:06:13.282Z,-11798.22
2022-08-05T15:09:03.838Z,-11810.09
2022-08-05T15:12:11.592Z,-11815.03
2022-08-05T15:15:54.616Z,-11802.59
2022-08-05T15:18:50.385Z,-11785.22
2022-08-05T15:22:00.281Z,-11804.72
2022-08-05T15:25:12.018Z,-11796.09
2022-08-05T15:28:20.385Z,-11888.41
2022-08-05T15:31:34.907Z,-11816.03
2022-08-05T15:34:42.887Z,-11764.88
2022-08-05T15:38:34.490Z,-11769.53
2022-08-05T15:41:22.937Z,-11765.31
2022-08-05T15:44:30.993Z,-11754.84
2022-08-05T15:47:37.338Z,-11750.06
2022-08-05T15:50:48.660Z,-11740.72
2022-08-05T15:53:55.184Z,-11747.78
2022-08-05T15:57:07.611Z,-11745.09
2022-08-05T16:00:17.035Z,-11747.50
2022-08-05T16:03:36.560Z,-11741.84
2022-08-05T16:06:49.085Z,-11742.13
2022-08-05T16:09:55.182Z,-11732.53
2022-08-05T16:13:01.075Z,-11726.59
2022-08-05T16:16:07.975Z,-11722.78
2022-08-05T16:19:25.491Z,-11719.09
2022-08-05T16:22:44.201Z,-11714.44
2022-08-05T16:25:55.812Z,-11714.03
2022-08-05T16:29:02.414Z,-11709.22
2022-08-05T16:32:09.898Z,-11708.66
2022-08-05T16:35:17.141Z,-11704.56
2022-08-05T16:38:28.085Z,-11696.22
2022-08-05T16:42:12.836Z,-11698.63
2022-08-05T16:45:01.105Z,-11692.41
2022-08-05T16:48:07.635Z,-11701.16
2022-08-05T16:51:17.068Z,-11694.81
2022-08-05T16:54:28.894Z,-11687.88
2022-08-05T16:57:52.919Z,-11686.47
2022-08-05T17:01:00.360Z,-11676.31
2022-08-05T17:04:07.223Z,-11674.59
2022-08-05T17:07:13.910Z,-11665.28
2022-08-05T17:10:41.736Z,-11662.47
2022-08-05T17:13:48.372Z,-11669.53
2022-08-05T17:16:54.707Z,-11667.69
2022-08-05T17:20:01.235Z,-11655.41
2022-08-05T17:23:08.590Z,-11653.84
2022-08-05T17:26:36.682Z,-11645.81
2022-08-05T17:29:45.754Z,-11643.25
2022-08-05T17:32:53.733Z,-11640.16
2022-08-05T17:36:08.918Z,-11635.50
2022-08-05T17:39:33.339Z,-11639.59
2022-08-05T17:42:50.526Z,-11633.94
2022-08-05T17:45:57.928Z,-11638.19
2022-08-05T17:49:06.164Z,-11637.19
2022-08-05T17:52:13.718Z,-11644.38
2022-08-05T17:55:21.990Z,-11635.06
2022-08-05T17:58:32.568Z,-11633.81
2022-08-05T18:01:49.497Z,-11628.56
2022-08-05T18:04:56.830Z,-11622.09
2022-08-05T18:08:05.149Z,-11618.13
2022-08-05T18:11:11.461Z,-11632.97
2022-08-05T18:14:32.612Z,-11635.63
2022-08-05T18:18:00.987Z,-11618.41
2022-08-05T18:21:13.279Z,-11623.78
2022-08-05T18:24:26.089Z,-11617.00
2022-08-05T18:27:33.440Z,-11611.78
2022-08-05T18:30:41.623Z,-11612.34
2022-08-05T18:33:51.517Z,-11617.16
2022-08-05T18:36:58.363Z,-11617.28
2022-08-05T18:41:03.362Z,-11613.34
2022-08-05T18:43:37.876Z,-11619.25
2022-08-05T18:46:50.446Z,-11616.44
2022-08-05T18:50:15.662Z,-11602.03
2022-08-05T18:53:24.694Z,-11604.16
2022-08-05T18:56:32.628Z,-11599.91
2022-08-05T18:59:43.925Z,-11599.50
2022-08-05T19:03:06.531Z,-11602.88
2022-08-05T19:06:21.435Z,-11601.34
2022-08-05T19:09:28.543Z,-11595.69
2022-08-05T19:12:46.420Z,-11590.19
2022-08-05T19:16:00.064Z,-11591.88
2022-08-05T19:19:10.589Z,-11593.56
2022-08-05T19:22:27.509Z,-11588.50
2022-08-05T19:25:39.220Z,-11585.94
2022-08-05T19:28:49.940Z,-11578.88
2022-08-05T19:31:57.335Z,-11565.91
2022-08-05T19:35:06.668Z,-11562.94
2022-08-05T19:38:13.199Z,-11565.19
2022-08-05T19:41:58.434Z,-11554.19
2022-08-05T19:44:48.008Z,-11553.34
2022-08-05T19:47:55.826Z,-11552.22
2022-08-05T19:51:03.343Z,-11561.09
2022-08-05T19:54:22.811Z,-11563.91
2022-08-05T19:57:57.256Z,-11557.16
2022-08-05T20:01:03.186Z,-11555.59
2022-08-05T20:04:11.733Z,-11551.09
2022-08-05T20:07:48.076Z,-11551.94
2022-08-05T20:10:45.860Z,-11545.88
2022-08-05T20:14:11.967Z,-11538.81
2022-08-05T20:17:19.258Z,-11539.22
2022-08-05T20:20:29.878Z,-11543.75
2022-08-05T20:23:50.192Z,-11537.41
2022-08-05T20:26:57.729Z,-11530.91
2022-08-05T20:30:03.925Z,-11524.97
2022-08-05T20:33:10.530Z,-11518.63
2022-08-05T20:36:17.957Z,-11516.22
2022-08-05T20:39:25.975Z,-11502.00
2022-08-05T20:42:43.573Z,-11505.78
2022-08-05T20:45:56.607Z,-11504.53
2022-08-05T20:49:03.914Z,-11499.72
2022-08-05T20:52:12.663Z,-11504.09
2022-08-05T20:55:56.310Z,-11500.00
2022-08-05T20:58:47.557Z,-11498.44
2022-08-05T21:01:58.544Z,-11496.75
2022-08-05T21:05:05.743Z,-11497.59
2022-08-05T21:08:15.509Z,-11494.22
2022-08-05T21:12:09.643Z,-11493.94
2022-08-05T21:14:50.055Z,-11499.31
2022-08-05T21:17:56.403Z,-11498.31
2022-08-05T21:21:03.866Z,-11488.59
2022-08-05T21:24:12.889Z,-11485.47
2022-08-05T21:27:27.103Z,-11482.09
2022-08-05T21:30:34.060Z,-11479.56
2022-08-05T21:33:40.611Z,-11483.22
2022-08-05T21:36:46.670Z,-11477.31
2022-08-05T21:39:55.592Z,-11478.00
2022-08-05T21:43:05.730Z,-11474.75
2022-08-05T21:46:14.368Z,-11488.59
2022-08-05T21:49:59.422Z,-11475.75
2022-08-05T21:52:47.312Z,-11456.72
2022-08-05T21:56:06.136Z,-11452.91
2022-08-05T21:59:24.112Z,-11432.47
2022-08-05T22:02:32.572Z,-11434.44
2022-08-05T22:05:48.868Z,-11429.38
2022-08-05T22:08:55.566Z,-11439.50
2022-08-05T22:12:03.549Z,-11446.56
2022-08-05T22:16:00.781Z,-11448.38
2022-08-05T22:18:49.119Z,-11449.94
2022-08-05T22:21:56.091Z,-11449.94
2022-08-05T22:25:27.515Z,-11450.50
2022-08-05T22:28:37.831Z,-11448.38
2022-08-05T22:31:46.047Z,-11440.06
2022-08-05T22:35:01.623Z,-11435.69
2022-08-05T22:38:09.941Z,-11421.03
2022-08-05T22:42:04.353Z,-11432.19
2022-08-05T22:44:56.337Z,-11430.22
2022-08-05T22:48:05.517Z,-11436.13
2022-08-05T22:51:16.070Z,-11416.53
2022-08-05T22:54:29.480Z,-11402.44
2022-08-05T22:57:36.523Z,-11423.00
2022-08-05T23:00:42.901Z,-11429.09
2022-08-05T23:03:58.503Z,-11434.00
2022-08-05T23:07:06.991Z,-11428.81
2022-08-05T23:10:13.637Z,-11423.72
2022-08-05T23:13:20.097Z,-11422.31
2022-08-05T23:16:40.230Z,-11401.72
2022-08-05T23:19:56.196Z,-11407.09
2022-08-05T23:23:03.634Z,-11399.75
2022-08-05T23:26:14.033Z,-11401.16
2022-08-05T23:29:21.538Z,-11400.88
2022-08-05T23:32:28.281Z,-11397.94
2022-08-05T23:35:36.293Z,-11410.91
2022-08-05T23:38:44.097Z,-11417.78
2022-08-05T23:41:50.486Z,-11416.53
2022-08-05T23:44:57.075Z,-11412.44
2022-08-05T23:48:04.451Z,-11399.06
2022-08-05T23:51:12.551Z,-11415.97
2022-08-05T23:54:25.848Z,-11415.69
2022-08-05T23:57:32.644Z,-11411.75
